Time;durP1;ratioP1;P1;durP2;ratioP2;P2;SDS_P1;SDS_P2;PMS_P1;PMS_P2;Temp;Humidity;BMP_temperature;BMP_pressure;BME280_temperature;BME280_humidity;BME280_pressure;Samples;Min_cycle;Max_cycle;Signal;HPM_P1;HPM_P2
2021/11/23 03:46:12;;;;;;;17.05;11.40;;;5.70;98.80;;;;;;5489699;24;20143;-78
2021/11/23 03:48:38;;;;;;;15.32;10.52;;;5.60;98.80;;;;;;4877780;29;20036;-78
2021/11/23 03:51:04;;;;;;;20.85;10.93;;;5.50;98.60;;;;;;4872379;29;20355;-78
2021/11/23 03:53:29;;;;;;;17.17;10.50;;;5.50;98.60;;;;;;4887973;29;20351;-80
2021/11/23 03:55:55;;;;;;;15.43;9.77;;;5.50;98.60;;;;;;4887713;29;20041;-78
2021/11/23 03:58:21;;;;;;;19.52;9.60;;;5.50;98.50;;;;;;4854053;29;20348;-80
2021/11/23 04:00:47;;;;;;;13.43;9.20;;;5.50;98.50;;;;;;4869242;29;20048;-80
2021/11/23 04:03:13;;;;;;;12.10;8.60;;;5.40;98.20;;;;;;4865864;29;20112;-80
2021/11/23 04:05:38;;;;;;;14.95;8.68;;;5.40;98.30;;;;;;4841921;29;20029;-80
2021/11/23 04:08:04;;;;;;;13.13;8.30;;;5.30;98.30;;;;;;4857038;29;20112;-78
2021/11/23 04:10:30;;;;;;;13.20;8.45;;;5.30;98.20;;;;;;4856890;29;20085;-78
2021/11/23 04:12:56;;;;;;;14.55;8.23;;;5.30;98.20;;;;;;4874378;29;20101;-78
2021/11/23 04:15:22;;;;;;;12.50;8.32;;;5.20;98.00;;;;;;4844715;29;20035;-78
2021/11/23 04:17:48;;;;;;;12.90;8.02;;;5.20;98.20;;;;;;4849205;29;20072;-79
2021/11/23 04:20:14;;;;;;;14.13;8.23;;;5.20;98.00;;;;;;4861086;29;20037;-79
2021/11/23 04:22:41;;;;;;;12.50;7.75;;;5.20;98.00;;;;;;4875905;29;20284;-79
2021/11/23 04:25:09;;;;;;;11.50;7.83;;;5.10;97.90;;;;;;4860449;29;20053;-78
2021/11/23 04:27:35;;;;;;;12.85;7.80;;;5.00;97.80;;;;;;4872627;29;20237;-79
2021/11/23 04:30:01;;;;;;;13.95;8.02;;;5.00;97.90;;;;;;4844854;29;20043;-79
2021/11/23 04:32:26;;;;;;;15.10;7.30;;;4.90;97.80;;;;;;4845017;29;20065;-79
2021/11/23 04:34:52;;;;;;;11.73;7.28;;;4.90;97.80;;;;;;4872665;29;20108;-79
2021/11/23 04:37:18;;;;;;;12.35;7.80;;;4.90;98.00;;;;;;4841783;29;20269;-79
2021/11/23 04:39:44;;;;;;;13.00;7.25;;;4.90;97.90;;;;;;4841622;29;20041;-79
2021/11/23 04:42:10;;;;;;;14.20;7.50;;;4.80;97.80;;;;;;4857002;29;20566;-79
2021/11/23 04:44:36;;;;;;;12.05;7.00;;;4.80;97.90;;;;;;4855403;29;20285;-79
2021/11/23 04:47:02;;;;;;;10.73;7.15;;;4.70;97.80;;;;;;4872213;29;20060;-79
2021/11/23 04:49:28;;;;;;;13.60;7.82;;;4.70;97.80;;;;;;4854236;29;20063;-79
2021/11/23 04:51:53;;;;;;;14.10;8.02;;;4.70;98.30;;;;;;4856959;29;20033;-79
2021/11/23 04:54:19;;;;;;;12.93;7.65;;;4.60;98.00;;;;;;4872311;29;20037;-79
2021/11/23 04:56:45;;;;;;;13.27;8.00;;;4.60;97.90;;;;;;4856992;29;20040;-79
2021/11/23 04:59:12;;;;;;;13.07;7.57;;;4.50;97.90;;;;;;4856913;29;20044;-80
2021/11/23 05:01:38;;;;;;;12.65;7.93;;;4.50;98.10;;;;;;4838185;29;20349;-80
2021/11/23 05:04:04;;;;;;;17.92;9.25;;;4.50;98.00;;;;;;4854085;29;20056;-80
2021/11/23 05:06:31;;;;;;;;;;;4.40;98.10;;;;;;4839160;29;20041;-80
2021/11/23 05:08:57;;;;;;;14.00;8.43;;;4.40;98.10;;;;;;4853825;29;20200;-79
2021/11/23 05:11:26;;;;;;;13.60;8.38;;;4.40;98.20;;;;;;4884010;29;20034;-79
2021/11/23 05:13:52;;;;;;;18.15;10.02;;;4.30;98.30;;;;;;4854031;29;20049;-79
2021/11/23 05:16:18;;;;;;;19.58;8.77;;;4.30;98.40;;;;;;4856674;29;20412;-80
2021/11/23 05:18:45;;;;;;;17.75;9.55;;;4.30;98.50;;;;;;4856619;29;20050;-79
2021/11/23 05:21:11;;;;;;;19.85;10.70;;;4.30;98.50;;;;;;4856650;29;20233;-80
2021/11/23 05:23:37;;;;;;;19.48;9.95;;;4.30;98.60;;;;;;4871224;29;20041;-79
2021/11/23 05:26:03;;;;;;;18.13;11.00;;;4.30;98.80;;;;;;4871729;29;20325;-80
2021/11/23 05:28:28;;;;;;;22.02;11.77;;;4.30;98.50;;;;;;4856386;29;20109;-80
2021/11/23 05:30:56;;;;;;;18.48;11.88;;;4.30;98.60;;;;;;4840465;29;20033;-80
2021/11/23 05:33:22;;;;;;;18.60;11.23;;;4.30;98.60;;;;;;4881579;29;20033;-79
2021/11/23 05:35:51;;;;;;;19.27;12.33;;;4.30;98.70;;;;;;4856325;29;20046;-79
2021/11/23 05:38:19;;;;;;;16.88;11.32;;;4.20;98.70;;;;;;4855658;29;20274;-79
2021/11/23 05:40:45;;;;;;;19.35;11.95;;;4.20;98.80;;;;;;4887087;29;20341;-79
2021/11/23 05:43:13;;;;;;;23.27;12.00;;;4.20;98.90;;;;;;4886967;29;20085;-79
2021/11/23 05:45:39;;;;;;;17.95;11.63;;;4.20;98.90;;;;;;4855721;29;20085;-79
2021/11/23 05:48:05;;;;;;;23.10;13.10;;;4.10;99.00;;;;;;4871198;29;20053;-79
2021/11/23 05:50:31;;;;;;;17.80;11.57;;;4.10;99.10;;;;;;4865962;29;20040;-79
2021/11/23 05:52:57;;;;;;;21.92;13.00;;;4.10;99.20;;;;;;4866611;29;20045;-79
2021/11/23 05:55:23;;;;;;;17.88;13.35;;;4.10;99.10;;;;;;4872347;29;20113;-79
2021/11/23 05:57:49;;;;;;;29.00;14.18;;;4.10;99.10;;;;;;4848242;29;20077;-79
2021/11/23 06:00:14;;;;;;;21.30;13.32;;;4.10;99.10;;;;;;4849961;29;20073;-79
2021/11/23 06:02:40;;;;;;;21.55;14.15;;;4.10;99.10;;;;;;4855959;29;20033;-79
2021/11/23 06:05:07;;;;;;;25.70;14.13;;;4.10;99.10;;;;;;4843359;29;20030;-79
2021/11/23 06:07:32;;;;;;;22.95;13.25;;;4.00;99.20;;;;;;4868849;29;20040;-79
2021/11/23 06:09:58;;;;;;;21.90;13.88;;;4.00;99.10;;;;;;4832856;29;20065;-79
2021/11/23 06:12:28;;;;;;;19.48;12.93;;;4.10;99.20;;;;;;4851014;29;20033;-78
2021/11/23 06:14:54;;;;;;;23.45;14.45;;;4.10;99.10;;;;;;4866359;29;20322;-80
2021/11/23 06:17:19;;;;;;;21.80;13.77;;;4.10;99.10;;;;;;4849531;29;20026;-80
2021/11/23 06:19:45;;;;;;;20.88;13.07;;;4.10;99.00;;;;;;4840137;29;20033;-80
2021/11/23 06:22:12;;;;;;;22.58;13.57;;;4.10;99.00;;;;;;4855623;29;20026;-80
2021/11/23 06:24:38;;;;;;;21.92;14.23;;;4.10;99.00;;;;;;4855496;29;20332;-80
2021/11/23 06:27:04;;;;;;;22.90;14.73;;;4.10;98.90;;;;;;4867457;29;20301;-80
2021/11/23 06:29:30;;;;;;;21.50;12.38;;;4.00;99.00;;;;;;4840904;29;20037;-80
2021/11/23 06:31:58;;;;;;;23.50;15.05;;;4.00;99.00;;;;;;4854674;29;20052;-80
2021/11/23 06:34:23;;;;;;;24.52;14.45;;;4.00;99.00;;;;;;4846601;29;20125;-80
2021/11/23 06:36:49;;;;;;;20.92;14.07;;;4.00;99.00;;;;;;4869464;29;20242;-79
2021/11/23 06:39:15;;;;;;;24.38;14.70;;;4.10;99.00;;;;;;4837855;29;20034;-80
2021/11/23 06:41:41;;;;;;;20.80;14.32;;;4.00;99.00;;;;;;4858784;29;20225;-80
2021/11/23 06:44:08;;;;;;;25.40;15.20;;;4.00;99.00;;;;;;4845305;29;20036;-80
2021/11/23 06:46:33;;;;;;;20.15;13.38;;;4.10;99.00;;;;;;4838941;29;20051;-80
2021/11/23 06:49:00;;;;;;;20.90;13.40;;;4.00;98.90;;;;;;4837567;29;20278;-80
2021/11/23 06:51:27;;;;;;;24.88;13.82;;;4.10;99.00;;;;;;4867786;29;20100;-80
2021/11/23 06:53:52;;;;;;;18.58;12.55;;;4.10;98.90;;;;;;4868763;29;20037;-81
2021/11/23 06:56:18;;;;;;;24.63;14.20;;;4.10;98.70;;;;;;4850950;29;20025;-80
2021/11/23 06:58:44;;;;;;;18.85;14.02;;;4.10;98.60;;;;;;4853716;29;20057;-80
2021/11/23 07:01:10;;;;;;;20.70;13.15;;;4.10;98.60;;;;;;4853583;29;20041;-80
2021/11/23 07:03:36;;;;;;;21.55;13.93;;;4.10;98.40;;;;;;4833800;29;20338;-80
2021/11/23 07:06:02;;;;;;;19.27;12.65;;;4.20;98.50;;;;;;4862953;29;20328;-80
2021/11/23 07:08:28;;;;;;;19.48;12.75;;;4.20;98.20;;;;;;4851552;29;20105;-80
2021/11/23 07:10:54;;;;;;;19.77;12.85;;;4.20;98.10;;;;;;4860287;29;20034;-80
2021/11/23 07:13:20;;;;;;;20.50;11.95;;;4.40;98.20;;;;;;4880170;29;20025;-80
2021/11/23 07:15:46;;;;;;;18.02;11.05;;;5.80;97.20;;;;;;4834265;29;20033;-80
2021/11/23 07:18:12;;;;;;;16.42;11.50;;;6.40;93.90;;;;;;4862524;29;20041;-80
2021/11/23 07:20:38;;;;;;;19.10;11.38;;;6.10;93.20;;;;;;4846267;29;20034;-80
2021/11/23 07:23:05;;;;;;;20.27;12.40;;;5.80;93.50;;;;;;4859381;29;20029;-80
2021/11/23 07:25:31;;;;;;;20.70;12.18;;;5.40;93.80;;;;;;4867085;29;20305;-81
2021/11/23 07:28:00;;;;;;;21.15;11.52;;;5.20;94.50;;;;;;4837449;29;20225;-80
2021/11/23 07:30:25;;;;;;;17.40;10.25;;;5.00;94.50;;;;;;4875310;29;20385;-80
2021/11/23 07:32:51;;;;;;;15.07;9.68;;;4.90;94.70;;;;;;4846594;29;20037;-80
2021/11/23 07:35:19;;;;;;;17.38;10.82;;;4.80;94.50;;;;;;4835884;29;20064;-80
2021/11/23 07:37:46;;;;;;;14.55;9.55;;;4.80;94.90;;;;;;4838251;29;20034;-80
2021/11/23 07:40:13;;;;;;;17.33;9.77;;;4.80;95.00;;;;;;4853585;29;20374;-80
2021/11/23 07:42:40;;;;;;;17.10;9.85;;;4.90;95.00;;;;;;4866349;29;20033;-81
2021/11/23 07:45:07;;;;;;;13.40;9.67;;;4.90;94.70;;;;;;4864233;29;20364;-80
2021/11/23 07:47:33;;;;;;;18.00;10.30;;;4.90;94.60;;;;;;4881523;29;20053;-80
2021/11/23 07:49:59;;;;;;;16.25;10.15;;;5.00;94.70;;;;;;4865976;29;20348;-80
2021/11/23 07:52:24;;;;;;;16.15;10.32;;;5.10;94.60;;;;;;4865804;29;20341;-80
2021/11/23 07:54:50;;;;;;;20.38;10.45;;;5.10;94.40;;;;;;4850860;29;20155;-80
2021/11/23 07:57:16;;;;;;;17.15;9.50;;;5.10;94.40;;;;;;4838090;29;20132;-81
2021/11/23 07:59:42;;;;;;;15.70;9.75;;;5.20;94.30;;;;;;4864794;29;20266;-80
2021/11/23 08:02:08;;;;;;;12.93;9.55;;;5.20;93.90;;;;;;4865426;29;20059;-80
2021/11/23 08:04:34;;;;;;;13.87;8.90;;;5.20;94.10;;;;;;4868162;29;20061;-80
2021/11/23 08:07:00;;;;;;;13.20;8.93;;;5.20;93.30;;;;;;4864131;29;20034;-80
2021/11/23 08:09:26;;;;;;;16.17;9.38;;;5.30;93.50;;;;;;4834595;29;20146;-80
2021/11/23 08:11:51;;;;;;;14.52;8.77;;;5.30;93.20;;;;;;4849999;29;20037;-80
2021/11/23 08:14:17;;;;;;;12.57;8.43;;;5.30;93.20;;;;;;4868719;29;20040;-80
2021/11/23 08:16:43;;;;;;;17.00;8.00;;;5.30;92.90;;;;;;4865522;29;20038;-80
2021/11/23 08:19:09;;;;;;;12.50;7.95;;;5.30;92.90;;;;;;4867888;29;20229;-80
2021/11/23 08:21:35;;;;;;;11.30;7.55;;;5.40;93.20;;;;;;4868468;29;20384;-80
2021/11/23 08:24:00;;;;;;;13.77;8.15;;;5.40;92.70;;;;;;4852862;29;20040;-80
2021/11/23 08:26:27;;;;;;;10.80;7.80;;;5.40;92.60;;;;;;4861922;29;20025;-80
2021/11/23 08:28:53;;;;;;;14.52;8.15;;;5.40;92.10;;;;;;4856305;29;20116;-80
2021/11/23 08:31:18;;;;;;;11.20;7.95;;;5.40;91.80;;;;;;4870876;29;20228;-80
2021/11/23 08:33:45;;;;;;;14.23;7.78;;;5.50;91.90;;;;;;4852925;29;20235;-80
2021/11/23 08:36:11;;;;;;;13.13;7.80;;;5.60;91.30;;;;;;4883473;29;20329;-80
2021/11/23 08:38:38;;;;;;;11.23;7.25;;;5.60;91.20;;;;;;4863197;29;20033;-80
2021/11/23 08:41:04;;;;;;;10.98;7.72;;;5.70;91.50;;;;;;4848789;29;20078;-79
2021/11/23 08:43:31;;;;;;;14.45;8.25;;;5.70;90.60;;;;;;4866748;29;20078;-79
2021/11/23 08:45:57;;;;;;;9.13;7.15;;;5.80;91.40;;;;;;4867461;29;20038;-79
2021/11/23 08:48:23;;;;;;;12.53;6.73;;;5.80;91.00;;;;;;4867788;29;20034;-80
2021/11/23 08:50:48;;;;;;;10.77;6.82;;;5.80;90.30;;;;;;4847670;29;20034;-80
2021/11/23 08:53:14;;;;;;;10.55;6.47;;;5.90;90.70;;;;;;4844100;29;20065;-80
2021/11/23 08:55:41;;;;;;;11.15;6.85;;;6.00;90.60;;;;;;4858103;29;20030;-79
2021/11/23 08:58:08;;;;;;;11.20;5.43;;;6.00;89.50;;;;;;4863865;29;20289;-80
2021/11/23 09:00:36;;;;;;;13.65;5.97;;;6.00;87.50;;;;;;4869140;29;20295;-80
2021/11/23 09:03:02;;;;;;;13.20;6.00;;;6.10;89.20;;;;;;4850936;29;20057;-80
2021/11/23 09:05:35;;;;;;;9.85;5.57;;;6.20;88.80;;;;;;4852561;29;20041;-79
2021/11/23 09:08:02;;;;;;;13.80;5.90;;;6.40;88.40;;;;;;4866338;29;20321;-80
2021/11/23 09:10:31;;;;;;;10.50;5.72;;;6.60;87.70;;;;;;4849481;29;20120;-80
2021/11/23 09:13:01;;;;;;;9.20;5.47;;;6.80;86.40;;;;;;4870551;29;20116;-80
2021/11/23 09:15:28;;;;;;;7.85;5.00;;;6.90;85.40;;;;;;4886353;29;20037;-79
2021/11/23 09:18:00;;;;;;;8.77;5.00;;;6.90;82.60;;;;;;4840093;29;20037;-80
2021/11/23 09:20:34;;;;;;;9.70;5.00;;;6.80;81.20;;;;;;4841245;29;20037;-80
2021/11/23 09:23:06;;;;;;;6.78;4.82;;;6.80;82.60;;;;;;4856109;29;20038;-79
2021/11/23 09:25:32;;;;;;;6.03;4.20;;;6.80;81.40;;;;;;4871221;29;20360;-79
2021/11/23 09:28:01;;;;;;;8.45;4.72;;;6.90;83.40;;;;;;4871124;29;20082;-79
2021/11/23 09:30:29;;;;;;;7.32;4.75;;;7.00;83.60;;;;;;4871294;29;20054;-79
2021/11/23 09:32:56;;;;;;;10.00;4.97;;;7.00;82.50;;;;;;4886521;29;20072;-79
2021/11/23 09:35:22;;;;;;;;;;;7.10;82.70;;;;;;4855917;29;20029;-79
2021/11/23 09:37:49;;;;;;;12.38;5.68;;;7.20;82.70;;;;;;4886218;29;20204;-79
2021/11/23 09:40:14;;;;;;;12.70;5.60;;;7.30;82.80;;;;;;4870528;29;20458;-80
2021/11/23 09:42:41;;;;;;;14.55;5.50;;;7.30;81.90;;;;;;4840374;29;20112;-79
2021/11/23 09:45:08;;;;;;;7.13;4.78;;;7.40;81.90;;;;;;4855630;29;20040;-80
2021/11/23 09:47:34;;;;;;;9.40;5.15;;;7.30;82.30;;;;;;4859096;29;20401;-79
2021/11/23 09:50:02;;;;;;;11.02;5.78;;;7.30;82.30;;;;;;4872060;29;20038;-79
2021/11/23 09:52:28;;;;;;;9.32;5.10;;;7.40;83.00;;;;;;4870790;29;20096;-79
2021/11/23 09:54:55;;;;;;;8.30;4.97;;;7.50;82.30;;;;;;4855487;29;20052;-79
2021/11/23 09:57:21;;;;;;;7.05;4.18;;;7.50;79.80;;;;;;4885562;29;20317;-79
2021/11/23 09:59:47;;;;;;;7.10;4.18;;;7.50;78.10;;;;;;4870512;29;20065;-79
2021/11/23 10:02:27;;;;;;;7.40;4.95;;;7.40;79.00;;;;;;4836475;29;20061;-79
2021/11/23 10:05:14;;;;;;;7.47;4.20;;;7.40;79.80;;;;;;4886042;29;20033;-78
2021/11/23 10:07:42;;;;;;;5.07;3.70;;;7.40;78.30;;;;;;4855476;29;20041;-79
2021/11/23 10:10:18;;;;;;;4.55;3.28;;;7.30;78.40;;;;;;4870263;29;20041;-79
2021/11/23 10:13:12;;;;;;;6.90;3.63;;;7.30;75.70;;;;;;4870539;29;20321;-79
2021/11/23 10:15:43;;;;;;;6.82;2.90;;;7.20;75.50;;;;;;4888087;29;20215;-78
2021/11/23 10:18:14;;;;;;;4.68;3.10;;;7.20;74.40;;;;;;4887809;29;20091;-78
2021/11/23 10:20:43;;;;;;;9.70;3.97;;;7.20;74.40;;;;;;4887730;29;20252;-79
2021/11/23 10:23:14;;;;;;;8.15;3.63;;;7.20;75.80;;;;;;4872034;29;20246;-79
2021/11/23 10:25:41;;;;;;;7.47;3.75;;;7.40;76.30;;;;;;4887998;29;20124;-79
2021/11/23 10:28:08;;;;;;;7.17;3.23;;;7.50;75.70;;;;;;4878650;29;20404;-79
2021/11/23 10:30:37;;;;;;;7.22;3.70;;;7.50;75.40;;;;;;4868309;29;20297;-79
2021/11/23 10:33:06;;;;;;;6.28;3.92;;;7.50;75.60;;;;;;4856265;29;20085;-79
2021/11/23 10:35:32;;;;;;;9.68;2.95;;;7.50;75.60;;;;;;4872382;29;20049;-79
2021/11/23 10:37:59;;;;;;;5.10;3.03;;;7.40;74.80;;;;;;4884333;29;20045;-79
2021/11/23 10:40:28;;;;;;;4.97;3.08;;;7.40;73.50;;;;;;4883257;29;20092;-79
2021/11/23 10:42:58;;;;;;;4.68;2.65;;;7.30;73.40;;;;;;4879242;29;20397;-80
2021/11/23 10:45:24;;;;;;;7.30;3.67;;;7.30;74.20;;;;;;4882481;29;20049;-80
2021/11/23 10:47:50;;;;;;;8.85;3.15;;;7.30;74.20;;;;;;4858710;29;20083;-80
2021/11/23 10:50:19;;;;;;;3.88;2.97;;;7.30;73.60;;;;;;4884471;29;20037;-80
2021/11/23 10:52:48;;;;;;;5.22;3.13;;;7.30;73.00;;;;;;4863496;29;20292;-80
2021/11/23 10:55:17;;;;;;;4.38;2.72;;;7.20;73.30;;;;;;4881808;29;20057;-80
2021/11/23 10:57:44;;;;;;;4.07;3.00;;;7.30;73.70;;;;;;4869417;29;20065;-80
2021/11/23 11:00:11;;;;;;;;;;;7.30;73.90;;;;;;4839470;29;20277;-80
2021/11/23 11:02:41;;;;;;;5.60;3.40;;;7.20;73.30;;;;;;4881112;29;20210;-80
2021/11/23 11:05:16;;;;;;;9.38;3.40;;;7.20;73.80;;;;;;4869582;29;20333;-80
2021/11/23 11:07:47;;;;;;;6.47;3.05;;;7.20;74.00;;;;;;4868821;29;20029;-81
2021/11/23 11:10:14;;;;;;;6.45;3.67;;;7.20;74.10;;;;;;4853928;29;20050;-81
2021/11/23 11:12:40;;;;;;;;;;;7.30;73.70;;;;;;4869279;29;20025;-79
2021/11/23 11:15:10;;;;;;;8.97;3.33;;;7.30;73.90;;;;;;4866515;29;19916;-80
2021/11/23 11:17:38;;;;;;;7.07;4.07;;;7.40;74.50;;;;;;4853408;29;20657;-80
2021/11/23 11:20:06;;;;;;;7.32;3.95;;;7.40;74.20;;;;;;4858892;29;20042;-80
2021/11/23 11:22:32;;;;;;;12.52;3.95;;;7.50;74.50;;;;;;4856659;29;20026;-80
2021/11/23 11:27:48;;;;;;;8.15;4.07;;;7.50;74.40;;;;;;4907071;29;20048;-80
2021/11/23 11:30:34;;;;;;;5.40;3.80;;;7.40;73.60;;;;;;4904930;29;20119;-80
2021/11/23 11:33:13;;;;;;;5.47;3.60;;;7.50;73.60;;;;;;4889922;29;20040;-80
2021/11/23 11:35:47;;;;;;;7.15;3.47;;;7.50;73.70;;;;;;4905676;29;20312;-80
2021/11/23 11:38:33;;;;;;;7.35;4.18;;;7.50;74.60;;;;;;4889742;29;20048;-81
2021/11/23 11:41:24;;;;;;;7.18;5.28;;;7.50;74.10;;;;;;4889907;29;20117;-80
2021/11/23 11:44:13;;;;;;;7.05;4.45;;;7.50;74.60;;;;;;4889901;29;20044;-80
2021/11/23 11:46:38;;;;;;;6.85;4.70;;;7.50;74.90;;;;;;4891742;29;20093;-80
2021/11/23 11:49:05;;;;;;;9.02;5.10;;;7.50;75.10;;;;;;4889545;29;20033;-80
2021/11/23 11:51:41;;;;;;;10.85;4.32;;;7.50;74.70;;;;;;4874177;29;20179;-80
2021/11/23 11:54:22;;;;;;;8.40;4.50;;;7.50;74.70;;;;;;4889630;29;20039;-80
2021/11/23 11:56:50;;;;;;;9.60;5.80;;;7.50;74.10;;;;;;4889785;29;20032;-80
2021/11/23 11:59:16;;;;;;;9.27;3.88;;;7.60;74.80;;;;;;4889506;29;20060;-81
2021/11/23 12:01:49;;;;;;;8.25;4.10;;;7.50;74.40;;;;;;4889566;29;20347;-80
2021/11/23 12:04:17;;;;;;;6.68;4.13;;;7.60;74.10;;;;;;4869829;29;20105;-81
2021/11/23 12:06:56;;;;;;;8.70;4.15;;;7.50;73.50;;;;;;4850079;29;20029;-80
2021/11/23 12:09:46;;;;;;;7.82;4.85;;;7.60;73.70;;;;;;4850190;29;20299;-80
2021/11/23 12:12:12;;;;;;;8.07;4.05;;;7.70;73.80;;;;;;4834931;29;20029;-80
2021/11/23 12:14:54;;;;;;;6.05;4.05;;;7.60;72.90;;;;;;4849983;29;20229;-81
2021/11/23 12:17:57;;;;;;;6.80;4.70;;;7.60;73.60;;;;;;4850157;29;20070;-80
2021/11/23 12:20:42;;;;;;;6.95;4.40;;;7.60;73.90;;;;;;4834477;29;20038;-80
2021/11/23 12:23:16;;;;;;;8.13;4.22;;;7.70;74.30;;;;;;4849815;29;20030;-80
2021/11/23 12:26:00;;;;;;;7.25;4.57;;;7.80;74.60;;;;;;4834883;29;20393;-80
2021/11/23 12:28:29;;;;;;;6.07;3.58;;;7.80;71.70;;;;;;4866243;29;20329;-80
2021/11/23 12:30:57;;;;;;;15.77;4.28;;;7.80;71.70;;;;;;4834496;29;20230;-80
2021/11/23 12:33:23;;;;;;;8.93;4.22;;;7.80;72.50;;;;;;4849735;29;20037;-80
2021/11/23 12:35:50;;;;;;;12.23;4.32;;;7.80;73.00;;;;;;4868699;29;20042;-80
2021/11/23 12:38:28;;;;;;;7.22;4.97;;;7.90;73.10;;;;;;4838218;29;20064;-81
2021/11/23 12:41:08;;;;;;;8.10;5.00;;;7.90;72.70;;;;;;4853246;29;20176;-80
2021/11/23 12:43:36;;;;;;;8.90;4.43;;;7.80;72.30;;;;;;4854946;29;20029;-81
2021/11/23 12:46:14;;;;;;;8.98;4.43;;;7.80;73.40;;;;;;4822863;29;20051;-80
2021/11/23 12:48:41;;;;;;;10.90;5.72;;;7.80;73.50;;;;;;4867980;29;20036;-81
2021/11/23 12:51:14;;;;;;;;;;;7.80;73.70;;;;;;4871874;29;20037;-80
2021/11/23 12:54:02;;;;;;;7.10;4.25;;;7.80;73.10;;;;;;4886966;29;19908;-80
2021/11/23 12:56:48;;;;;;;6.97;4.32;;;7.70;73.40;;;;;;4856471;29;20343;-80
2021/11/23 12:59:38;;;;;;;6.00;4.10;;;7.80;73.60;;;;;;4850402;29;20104;-80
2021/11/23 13:02:32;;;;;;;9.60;4.43;;;7.80;73.20;;;;;;4863684;29;20373;-80
2021/11/23 13:05:10;;;;;;;8.50;4.40;;;7.70;72.70;;;;;;4870761;29;20287;-80
2021/11/23 13:07:53;;;;;;;7.07;4.22;;;7.70;73.40;;;;;;4867160;29;20365;-80
2021/11/23 13:10:25;;;;;;;5.07;4.05;;;7.70;73.90;;;;;;4867923;29;20262;-80
2021/11/23 13:13:00;;;;;;;7.43;4.07;;;7.70;72.90;;;;;;4870095;29;20034;-80
2021/11/23 13:15:28;;;;;;;7.38;3.70;;;7.70;73.50;;;;;;4883053;29;20052;-80
2021/11/23 13:18:17;;;;;;;7.55;4.30;;;7.70;73.60;;;;;;4847248;29;20025;-80
2021/11/23 13:20:46;;;;;;;7.28;4.50;;;7.70;73.00;;;;;;4879797;29;20336;-80
2021/11/23 13:23:27;;;;;;;5.45;3.72;;;7.70;73.60;;;;;;4883446;29;20025;-80
2021/11/23 13:26:33;;;;;;;11.77;3.83;;;7.70;72.80;;;;;;4869763;29;20072;-80
2021/11/23 13:29:02;;;;;;;10.15;4.80;;;7.70;72.10;;;;;;4834781;29;20033;-80
2021/11/23 13:31:30;;;;;;;5.13;3.63;;;7.70;73.10;;;;;;4836665;29;20360;-80
2021/11/23 13:34:01;;;;;;;7.13;4.15;;;7.80;72.90;;;;;;4808659;29;20053;-80
2021/11/23 13:36:35;;;;;;;5.03;3.60;;;7.80;72.50;;;;;;4819583;29;20038;-80
2021/11/23 13:39:02;;;;;;;8.05;4.32;;;7.70;72.10;;;;;;4821207;29;20059;-80
2021/11/23 13:41:31;;;;;;;7.90;4.10;;;7.70;72.40;;;;;;4836248;29;20069;-80
2021/11/23 13:44:26;;;;;;;8.18;4.10;;;7.70;73.10;;;;;;4836499;29;20030;-80
2021/11/23 13:47:06;;;;;;;6.38;4.03;;;7.70;72.80;;;;;;4813311;29;20054;-80
2021/11/23 13:49:39;;;;;;;7.53;3.65;;;7.80;73.10;;;;;;4815261;29;20106;-80
2021/11/23 13:52:18;;;;;;;8.52;4.22;;;7.80;73.20;;;;;;4799363;29;20358;-80
2021/11/23 13:54:49;;;;;;;6.80;3.70;;;7.70;73.10;;;;;;4778104;29;20033;-80
2021/11/23 13:57:21;;;;;;;6.68;3.90;;;7.60;73.20;;;;;;4774585;29;20333;-80
2021/11/23 13:59:55;;;;;;;5.45;3.50;;;7.70;73.30;;;;;;4776576;29;20049;-80
2021/11/23 14:02:55;;;;;;;4.75;3.60;;;7.70;72.90;;;;;;4799461;29;20038;-81
2021/11/23 14:06:01;;;;;;;10.30;4.22;;;7.70;73.40;;;;;;4816556;29;20043;-80
2021/11/23 14:08:33;;;;;;;12.50;3.90;;;7.60;73.60;;;;;;4817122;29;20022;-80
2021/11/23 14:11:05;;;;;;;6.07;3.10;;;7.70;73.20;;;;;;4817215;29;20050;-80
2021/11/23 14:13:36;;;;;;;6.97;3.90;;;7.60;72.80;;;;;;4810088;29;20034;-80
2021/11/23 14:16:16;;;;;;;11.45;4.53;;;7.60;72.60;;;;;;4790630;29;20046;-80
2021/11/23 14:18:42;;;;;;;6.50;3.85;;;7.60;72.10;;;;;;4790328;29;20134;-80
2021/11/23 14:21:13;;;;;;;6.78;3.78;;;7.50;72.80;;;;;;4796043;29;20090;-81
2021/11/23 14:23:47;;;;;;;6.38;3.30;;;7.60;72.30;;;;;;4818076;29;20042;-81
2021/11/23 14:26:34;;;;;;;6.05;3.90;;;7.50;72.70;;;;;;4868763;29;20031;-81
2021/11/23 14:29:21;;;;;;;6.85;3.50;;;7.50;72.40;;;;;;4889872;29;20056;-80
2021/11/23 14:31:52;;;;;;;;;;;7.50;72.90;;;;;;4854858;29;20045;-80
2021/11/23 14:34:19;;;;;;;4.68;3.33;;;7.50;73.40;;;;;;4870100;29;19915;-81
2021/11/23 14:36:48;;;;;;;5.72;3.35;;;7.40;73.00;;;;;;4854875;29;20250;-80
2021/11/23 14:39:16;;;;;;;5.55;3.45;;;7.40;73.30;;;;;;4869671;29;20104;-80
2021/11/23 14:41:42;;;;;;;5.53;3.30;;;7.40;73.40;;;;;;4869935;29;20033;-80
2021/11/23 14:44:09;;;;;;;9.27;3.97;;;7.30;73.40;;;;;;4854535;29;20325;-80
2021/11/23 14:46:36;;;;;;;12.77;3.72;;;7.30;73.20;;;;;;4866389;29;20341;-79
2021/11/23 14:49:03;;;;;;;8.82;3.97;;;7.20;73.50;;;;;;4854434;29;20069;-80
2021/11/23 14:51:29;;;;;;;5.53;3.72;;;7.20;73.90;;;;;;4869710;29;20108;-79
2021/11/23 14:53:56;;;;;;;6.22;3.08;;;7.20;73.10;;;;;;4852139;29;20041;-80
2021/11/23 14:56:22;;;;;;;6.13;3.50;;;7.10;73.20;;;;;;4853638;29;20041;-79
2021/11/23 14:58:49;;;;;;;6.20;3.55;;;7.10;73.20;;;;;;4884900;29;20059;-79
2021/11/23 15:01:15;;;;;;;6.90;3.80;;;7.10;73.70;;;;;;4854238;29;20206;-80
2021/11/23 15:03:41;;;;;;;5.72;3.30;;;7.00;74.00;;;;;;4885087;29;20029;-80
2021/11/23 15:06:07;;;;;;;6.97;3.42;;;7.10;74.30;;;;;;4853954;29;20086;-80
2021/11/23 15:08:33;;;;;;;15.50;3.78;;;7.00;74.20;;;;;;4854193;29;20033;-80
2021/11/23 15:10:59;;;;;;;12.00;4.57;;;6.90;74.40;;;;;;4850830;29;20092;-80
2021/11/23 15:13:25;;;;;;;8.27;5.10;;;6.90;74.50;;;;;;4851170;29;20217;-80
2021/11/23 15:15:51;;;;;;;8.35;4.55;;;6.90;74.80;;;;;;4852160;29;20241;-80
2021/11/23 15:18:17;;;;;;;12.27;5.95;;;6.80;74.70;;;;;;4853901;29;20033;-80
2021/11/23 15:20:43;;;;;;;12.13;5.35;;;6.80;74.80;;;;;;4853667;29;20348;-80
2021/11/23 15:23:10;;;;;;;11.43;4.70;;;6.70;75.00;;;;;;4853922;29;20360;-80
2021/11/23 15:25:36;;;;;;;8.53;5.03;;;6.70;75.50;;;;;;4837333;29;20034;-80
2021/11/23 15:28:07;;;;;;;11.43;4.38;;;6.70;75.90;;;;;;4858083;29;20033;-81
2021/11/23 15:30:44;;;;;;;9.35;4.82;;;6.60;75.90;;;;;;4853231;29;20041;-80
2021/11/23 15:33:09;;;;;;;7.40;3.92;;;6.50;76.00;;;;;;4850264;29;20034;-80
2021/11/23 15:35:38;;;;;;;8.95;4.65;;;6.50;76.30;;;;;;4851703;29;20041;-80
2021/11/23 15:38:06;;;;;;;7.55;3.97;;;6.40;76.10;;;;;;4847925;29;20053;-80
2021/11/23 15:40:32;;;;;;;9.07;5.18;;;6.40;76.30;;;;;;4851132;29;20043;-80
2021/11/23 15:42:58;;;;;;;10.00;4.60;;;6.30;76.50;;;;;;4849074;29;20400;-80
2021/11/23 15:45:24;;;;;;;9.38;4.63;;;6.30;76.90;;;;;;4844491;29;20101;-80
2021/11/23 15:47:50;;;;;;;10.52;4.97;;;6.10;77.30;;;;;;4843785;29;20038;-80
2021/11/23 15:50:22;;;;;;;11.40;4.97;;;6.10;77.60;;;;;;4849556;29;20049;-80
2021/11/23 15:52:48;;;;;;;8.77;5.25;;;6.00;78.20;;;;;;4865035;29;20041;-80
2021/11/23 15:55:14;;;;;;;11.23;5.60;;;5.80;78.60;;;;;;4845330;29;20038;-80
2021/11/23 15:57:40;;;;;;;10.77;5.07;;;5.70;79.30;;;;;;4865831;29;20037;-79
2021/11/23 16:00:08;;;;;;;8.70;5.35;;;5.60;79.30;;;;;;4868295;29;20033;-80
2021/11/23 16:02:34;;;;;;;8.32;5.50;;;5.50;79.70;;;;;;4881597;29;20025;-80
2021/11/23 16:04:59;;;;;;;10.27;5.13;;;5.50;80.10;;;;;;4879012;29;20033;-80
2021/11/23 16:07:28;;;;;;;10.27;5.88;;;5.40;80.60;;;;;;4853205;29;20088;-80
2021/11/23 16:09:54;;;;;;;19.63;5.72;;;5.30;80.80;;;;;;4855524;29;20026;-80
2021/11/23 16:12:22;;;;;;;11.82;5.53;;;5.20;81.40;;;;;;4870679;29;20038;-79
2021/11/23 16:14:49;;;;;;;9.90;5.75;;;5.20;81.70;;;;;;4854617;29;20030;-79
2021/11/23 16:17:14;;;;;;;12.55;6.63;;;5.10;82.00;;;;;;4871202;29;20030;-79
2021/11/23 16:19:40;;;;;;;12.68;6.55;;;5.00;82.20;;;;;;4840699;29;20029;-79
2021/11/23 16:22:06;;;;;;;16.10;6.15;;;5.00;82.80;;;;;;4865785;29;20049;-79
2021/11/23 16:24:33;;;;;;;11.80;6.53;;;4.90;83.30;;;;;;4866289;29;20038;-79
2021/11/23 16:26:59;;;;;;;13.80;5.97;;;4.80;83.80;;;;;;4837627;29;20053;-79
2021/11/23 16:29:25;;;;;;;11.40;6.45;;;4.80;84.70;;;;;;4882252;29;20282;-79
2021/11/23 16:31:51;;;;;;;10.60;6.60;;;4.80;85.00;;;;;;4865706;29;20306;-79
2021/11/23 16:34:18;;;;;;;11.07;6.10;;;4.90;84.90;;;;;;4849424;29;20038;-79
2021/11/23 16:36:44;;;;;;;12.93;6.45;;;4.90;85.60;;;;;;4882843;29;20040;-79
2021/11/23 16:39:11;;;;;;;13.65;7.38;;;5.00;85.40;;;;;;4855817;29;20248;-79
2021/11/23 16:41:38;;;;;;;10.80;6.72;;;4.90;85.80;;;;;;4848994;29;20056;-82
2021/11/23 16:44:06;;;;;;;13.18;6.85;;;4.90;85.70;;;;;;4862918;29;20305;-82
2021/11/23 16:46:32;;;;;;;12.38;6.25;;;4.90;85.70;;;;;;4871433;29;20074;-81
2021/11/23 16:48:58;;;;;;;12.80;6.22;;;4.80;85.80;;;;;;4866802;29;20038;-82